San Felice — 9HA2811 — position and weather

sailwx.info

Track history (hours):
 
Tides and Currents Weather Stations Pressure Air Temp Water Temp Dewpoint Dewpoint Depression Visibility Wind Speed Wind Dir Waves Ship Positions

San Felice

Last reported at 2018-May-19 19:57 UTC. Time now 2018-May-20 11:35 UTC.
Position N 20°12' E 069°19'.

Length 180 m; draft 8.9 m.

Type: Cargo ship. MMSI: 256054000.

Date/timePositionNaut miles runAvg speedWind from/ knotsBaromVisibWave heightAir tempDewpointWater temp
2018-May-19 19:57N 20°12' E 069°19'613.1
2018-May-19 19:30N 20°17' E 069°15'20813.3
2018-May-19 03:48N 23°13' E 067°16'412.6
2018-May-19 03:30N 23°16' E 067°13'612.7
2018-May-19 03:00N 23°22' E 067°10'5112.9
2018-May-18 23:04N 24°07' E 066°45'513.5
2018-May-18 22:40N 24°12' E 066°44'313.5
2018-May-18 22:28N 24°15' E 066°44'2213.1
2018-May-18 20:48N 24°36' E 066°53'8 9.7
2018-May-18 20:01N 24°43' E 066°55'  
Track history (hours):
 
Tides and Currents Weather Stations Pressure Air Temp Water Temp Dewpoint Dewpoint Depression Visibility Wind Speed Wind Dir Waves Ship Positions

San Felice

Last reported at 2018-May-19 19:57 UTC. Time now 2018-May-20 11:35 UTC.
Position N 20°12' E 069°19'.

Length 180 m; draft 8.9 m.

Type: Cargo ship. MMSI: 256054000.

Date/timePositionNaut miles runAvg speedWind from/ knotsBaromVisibWave heightAir tempDewpointWater temp
2018-May-19 19:57N 20°12' E 069°19'613.1
2018-May-19 19:30N 20°17' E 069°15'20813.3
2018-May-19 03:48N 23°13' E 067°16'412.6
2018-May-19 03:30N 23°16' E 067°13'612.7
2018-May-19 03:00N 23°22' E 067°10'5112.9
2018-May-18 23:04N 24°07' E 066°45'513.5
2018-May-18 22:40N 24°12' E 066°44'313.5
2018-May-18 22:28N 24°15' E 066°44'2213.1
2018-May-18 20:48N 24°36' E 066°53'8 9.7
2018-May-18 20:01N 24°43' E 066°55'  

Dump ship's entire track history